ADDS METAR Data INFO
IDs: Format: Raw Decoded Include TAF

Data at: 1810 UTC 18 Feb 2018

KMRF 181756Z AUTO 18017G22KT 10SM CLR 21/09 A3007 RMK AO2 SLP143 6//// T02060089 10206 20072 58015
KMRF 181656Z AUTO 17016G20KT 10SM CLR 18/09 A3010 RMK AO2 SLP155 T01830094
KMRF 181556Z AUTO 17010KT 10SM CLR 15/09 A3012 RMK AO2 SLP164 T01500089
KMRF 181456Z AUTO 00000KT 10SM CLR 12/07 A3012 RMK AO2 SLP172 6//// T01220072 50004
KMRF 181356Z AUTO 04004KT 10SM BKN110 07/04 A3013 RMK AO2 SLP178 T00720044
KMRF 181256Z AUTO 08003KT 10SM BKN110 09/05 A3011 RMK AO2 SLP167 T00890050
KMRF 181156Z AUTO 24003KT 10SM BKN110 10/04 A3011 RMK AO2 SLP161 6//// 7//// T01000044 10122 20089 55012
KMRF 181056Z AUTO 00000KT 10SM BKN110 11/06 A3010 RMK AO2 RAE33 SLP154 P0000 T01110056
KMRF 180956Z AUTO 22004KT 10SM -RA SCT075 BKN090 OVC110 12/05 A3013 RMK AO2 RAB24 SLP162 P0000 T01170050
KMRF 180856Z AUTO 06006KT 10SM SCT075 BKN090 OVC110 09/03 A3015 RMK AO2 SLP173 6//// T00940033 58016
KMRF 180756Z AUTO 02003KT 10SM OVC110 10/04 A3018 RMK AO2 SLP180 T01000039
KMRF 180656Z AUTO 33007KT 10SM FEW110 09/03 A3019 RMK AO2 SLP184 T00940033 402060011
KMRF 180556Z AUTO 32008KT 10SM OVC110 11/04 A3021 RMK AO2 SLP193 6//// T01060039 10178 20094 58001
KMRF 180456Z AUTO 01003KT 10SM FEW120 11/04 A3021 RMK AO2 SLP197 T01110044
KMRF 180356Z AUTO 33003KT 10SM SCT120 12/04 A3021 RMK AO2 SLP201 T01170044
KMRF 180256Z AUTO 05008KT 10SM CLR 11/04 A3021 RMK AO2 SLP207 6//// T01110044 50011
KMRF 180156Z AUTO 04007KT 10SM CLR 13/05 A3021 RMK AO2 SLP216 T01280050
KMRF 180056Z AUTO 04006KT 10SM CLR 15/05 A3020 RMK AO2 SLP206 T01500050
KMRF 172356Z AUTO 09009KT 10SM CLR 18/06 A3017 RMK AO2 SLP193 6//// T01780056 10206 20178 55004
KMRF 172256Z AUTO 30004KT 10SM CLR 20/03 A3016 RMK AO2 SLP186 T02000033
KMRF 172056Z AUTO 28014KT 10SM CLR 19/03 A3019 RMK AO2 SLP189 T01940033 56013
KMRF 171956Z AUTO 27018KT 10SM CLR 20/04 A3019 RMK AO2 PK WND 27026/1946 SLP190 T02000039
KMRF 171856Z AUTO 31011G18KT 10SM CLR 20/05 A3022 RMK AO2 SLP196 T02000050
KMRF 171756Z AUTO 30014G19KT 10SM CLR 18/06 A3023 RMK AO2 SLP203 T01830056 10189 20011 50005
KMRF 171656Z AUTO 32007KT 10SM CLR 16/06 A3024 RMK AO2 SLP210 T01610056
KMRF 171556Z AUTO 21004KT 10SM CLR 13/04 A3024 RMK AO2 SLP217 T01280039
KMRF 171456Z AUTO 00000KT 10SM CLR 08/00 A3021 RMK AO2 SLP212 T00830000
KMRF 171356Z AUTO 00000KT 10SM CLR 03/M02 A3020 RMK AO2 SLP214 T00281017
KMRF 171256Z AUTO 00000KT 10SM CLR 02/M03 A3018 RMK AO2 SLP205 T00221028 FZRANO
KMRF 171156Z AUTO 33004KT 10SM CLR 03/M03 RMK AO2 SLPNO 60000 7//// T00281028 10100 20022 $
KMRF 171056Z AUTO 32003KT 10SM CLR 03/M03 A3016 RMK AO2 SLP191 T00281028
KMRF 170956Z AUTO 32006KT 10SM CLR 04/M02 A3015 RMK AO2 SLP184 T00441022
KMRF 170856Z AUTO 00000KT 10SM SCT039 07/00 A3015 RMK AO2 SLP181 60000 T00670000 50000
KMRF 170756Z AUTO 02005KT 10SM CLR 08/01 A3017 RMK AO2 SLP184 T00780006
KMRF 170656Z AUTO 05004KT 10SM FEW095 OVC110 09/03 A3016 RMK AO2 RAE14 SLP176 P0000 T00940033 401890050